Time;durP1;ratioP1;P1;durP2;ratioP2;P2;SDS_P1;SDS_P2;PMS_P1;PMS_P2;Temp;Humidity;BMP_temperature;BMP_pressure;BME280_temperature;BME280_humidity;BME280_pressure;Samples;Min_cycle;Max_cycle;Signal;HPM_P1;HPM_P2
2023/02/23 00:02:11;;;;;;;56.40;30.90;;;;;;;;;;4988424;28;20178;-69
2023/02/23 00:04:37;;;;;;;51.47;32.07;;;;;;;;;;4985108;28;20935;-70
2023/02/23 00:07:02;;;;;;;53.43;31.73;;;;;;;;;;4981438;28;20425;-70
2023/02/23 00:09:34;;;;;;;52.30;30.40;;;;;;;;;;4984203;28;20714;-70
2023/02/23 00:12:02;;;;;;;59.73;33.30;;;;;;;;;;4984294;28;20625;-69
2023/02/23 00:14:27;;;;;;;58.00;32.20;;;;;;;;;;4983439;28;20433;-69
2023/02/23 00:16:53;;;;;;;60.13;32.90;;;;;;;;;;4984458;28;20451;-69
2023/02/23 00:19:19;;;;;;;59.57;31.57;;;;;;;;;;4982074;28;20480;-69
2023/02/23 00:21:44;;;;;;;68.57;32.27;;;;;;;;;;4981360;28;20189;-69
2023/02/23 00:24:10;;;;;;;62.13;34.03;;;;;;;;;;4977706;28;20658;-70
2023/02/23 00:26:38;;;;;;;61.83;33.70;;;;;;;;;;4983878;28;20185;-69
2023/02/23 00:29:04;;;;;;;54.90;31.50;;;;;;;;;;4982031;28;20519;-69
2023/02/23 00:31:30;;;;;;;49.90;29.80;;;;;;;;;;4985715;28;20436;-69
2023/02/23 00:33:58;;;;;;;56.87;32.10;;;;;;;;;;4985781;28;20421;-69
2023/02/23 00:36:24;;;;;;;57.50;32.70;;;;;;;;;;4983422;28;20189;-70
2023/02/23 00:38:56;;;;;;;56.50;33.23;;;;;;;;;;4981940;28;20468;-69
2023/02/23 00:41:27;;;;;;;51.80;31.40;;;;;;;;;;4978548;28;20448;-69
2023/02/23 00:43:53;;;;;;;50.20;31.80;;;;;;;;;;4981044;28;20999;-70
2023/02/23 00:46:22;;;;;;;53.33;33.80;;;;;;;;;;4977031;28;20878;-70
2023/02/23 00:48:48;;;;;;;55.90;34.60;;;;;;;;;;4982651;28;20479;-70
2023/02/23 00:51:14;;;;;;;51.50;32.77;;;;;;;;;;4984565;28;20512;-70
2023/02/23 00:53:40;;;;;;;53.83;32.77;;;;;;;;;;4986415;28;20499;-70
2023/02/23 00:56:06;;;;;;;53.40;32.80;;;;;;;;;;4985820;28;20542;-70
2023/02/23 00:58:31;;;;;;;59.90;33.87;;;;;;;;;;4983060;28;20925;-69
2023/02/23 01:01:00;;;;;;;50.70;32.67;;;;;;;;;;4987630;28;20511;-69
2023/02/23 01:03:26;;;;;;;50.73;33.40;;;;;;;;;;4986980;28;20269;-70
2023/02/23 01:05:51;;;;;;;49.27;31.90;;;;;;;;;;4985904;28;20420;-70
2023/02/23 01:08:17;;;;;;;51.17;34.33;;;;;;;;;;4985580;28;20468;-70
2023/02/23 01:10:43;;;;;;;54.10;34.30;;;;;;;;;;4986620;28;20224;-69
2023/02/23 01:13:09;;;;;;;51.10;32.77;;;;;;;;;;4986473;28;20409;-70
2023/02/23 01:15:40;;;;;;;53.40;34.10;;;;;;;;;;4984175;28;20435;-70
2023/02/23 01:18:06;;;;;;;52.63;33.90;;;;;;;;;;4987546;28;20447;-70
2023/02/23 01:20:34;;;;;;;49.93;33.53;;;;;;;;;;4986746;28;20444;-70
2023/02/23 01:23:00;;;;;;;42.87;30.07;;;;;;;;;;4986992;28;20232;-70
2023/02/23 01:25:27;;;;;;;54.23;31.07;;;;;;;;;;4984178;28;20433;-70
2023/02/23 01:27:53;;;;;;;49.50;32.30;;;;;;;;;;4985162;28;20228;-70
2023/02/23 01:30:18;;;;;;;50.07;31.50;;;;;;;;;;4983547;28;20433;-69
2023/02/23 01:32:43;;;;;;;50.77;30.73;;;;;;;;;;4982561;28;20174;-70
2023/02/23 01:35:11;;;;;;;50.50;33.10;;;;;;;;;;4980315;28;20654;-69
2023/02/23 01:37:39;;;;;;;50.70;33.53;;;;;;;;;;4981282;28;20170;-69
2023/02/23 01:40:14;;;;;;;51.10;32.77;;;;;;;;;;4979655;28;20480;-70
2023/02/23 01:42:43;;;;;;;49.70;31.87;;;;;;;;;;4978647;28;20428;-70
2023/02/23 01:45:24;;;;;;;49.77;33.13;;;;;;;;;;4979420;28;20492;-69
2023/02/23 01:47:54;;;;;;;47.27;31.57;;;;;;;;;;4974809;28;20436;-69
2023/02/23 01:50:20;;;;;;;43.27;30.03;;;;;;;;;;4981972;28;20515;-70
2023/02/23 01:52:49;;;;;;;47.30;32.60;;;;;;;;;;4983546;28;20914;-69
2023/02/23 01:55:23;;;;;;;46.47;31.00;;;;;;;;;;4985428;28;20182;-70
2023/02/23 01:57:49;;;;;;;41.57;30.40;;;;;;;;;;4982175;28;20448;-70
2023/02/23 02:00:18;;;;;;;53.73;32.80;;;;;;;;;;4980391;28;20456;-69
2023/02/23 02:02:44;;;;;;;45.00;30.53;;;;;;;;;;4981855;28;20505;-70
2023/02/23 02:05:11;;;;;;;45.03;33.90;;;;;;;;;;4976381;28;20799;-69
2023/02/23 02:07:38;;;;;;;49.23;31.70;;;;;;;;;;4981291;28;20174;-70
2023/02/23 02:12:39;;;;;;;45.47;32.60;;;;;;;;;;4980935;28;20464;-69
2023/02/23 02:15:06;;;;;;;45.20;30.70;;;;;;;;;;4983199;28;20511;-70
2023/02/23 02:17:34;;;;;;;52.90;33.60;;;;;;;;;;4977750;28;20421;-70
2023/02/23 02:20:30;;;;;;;46.80;32.63;;;;;;;;;;4977523;28;20555;-69
2023/02/23 02:23:15;;;;;;;48.83;32.37;;;;;;;;;;4979808;28;20443;-69
2023/02/23 02:25:48;;;;;;;48.03;32.00;;;;;;;;;;4976178;28;21330;-70
2023/02/23 02:28:32;;;;;;;50.73;33.97;;;;;;;;;;4982372;28;20456;-70
2023/02/23 02:31:16;;;;;;;50.13;31.83;;;;;;;;;;4986200;28;20479;-70
2023/02/23 02:33:42;;;;;;;47.40;30.00;;;;;;;;;;4978899;28;21059;-69
2023/02/23 02:36:08;;;;;;;53.40;33.30;;;;;;;;;;4980093;28;21008;-69
2023/02/23 02:38:41;;;;;;;54.23;34.17;;;;;;;;;;4981454;28;20605;-70
2023/02/23 02:41:14;;;;;;;45.13;31.57;;;;;;;;;;4982973;28;20177;-69
2023/02/23 02:43:41;;;;;;;49.50;32.30;;;;;;;;;;4979048;28;20425;-70
2023/02/23 02:46:33;;;;;;;48.03;32.87;;;;;;;;;;4982775;28;20420;-70
2023/02/23 02:48:58;;;;;;;53.60;32.97;;;;;;;;;;4974594;28;20624;-70
2023/02/23 02:51:23;;;;;;;52.53;33.23;;;;;;;;;;4980749;28;20525;-69
2023/02/23 02:53:54;;;;;;;53.40;34.37;;;;;;;;;;4981560;28;20208;-70
2023/02/23 02:56:23;;;;;;;58.43;35.93;;;;;;;;;;4985127;28;21146;-69
2023/02/23 02:58:49;;;;;;;50.70;33.63;;;;;;;;;;4979442;28;20449;-69
2023/02/23 04:17:34;;;;;;;68.13;39.23;;;;;;;;;;4982265;28;20519;-75
2023/02/23 04:19:59;;;;;;;65.37;40.53;;;;;;;;;;4982440;28;20516;-75
2023/02/23 04:22:25;;;;;;;81.70;42.57;;;;;;;;;;4980030;28;20674;-76
2023/02/23 04:24:50;;;;;;;68.40;40.90;;;;;;;;;;4982119;28;20192;-76
2023/02/23 04:27:16;;;;;;;72.27;39.20;;;;;;;;;;4984944;28;20178;-75
2023/02/23 04:29:42;;;;;;;71.50;39.43;;;;;;;;;;4981282;28;20248;-76
2023/02/23 04:32:11;;;;;;;73.33;39.40;;;;;;;;;;4982980;28;20492;-76
2023/02/23 04:34:36;;;;;;;63.73;38.40;;;;;;;;;;4983605;28;20532;-76
2023/02/23 04:37:01;;;;;;;71.33;39.90;;;;;;;;;;4984328;28;21331;-76
2023/02/23 04:39:27;;;;;;;68.93;41.47;;;;;;;;;;4983891;28;20185;-76
2023/02/23 04:41:52;;;;;;;69.00;40.93;;;;;;;;;;4982455;28;20206;-76
2023/02/23 04:44:17;;;;;;;61.40;40.00;;;;;;;;;;4984176;28;20186;-76
2023/02/23 04:46:43;;;;;;;66.60;39.80;;;;;;;;;;4978489;28;20213;-76
2023/02/23 04:49:08;;;;;;;65.33;39.90;;;;;;;;;;4981001;28;21309;-76
2023/02/23 04:51:35;;;;;;;67.93;41.40;;;;;;;;;;4980833;28;20530;-76
2023/02/23 04:54:01;;;;;;;65.70;39.90;;;;;;;;;;4978675;28;20213;-76
2023/02/23 04:56:26;;;;;;;71.60;39.17;;;;;;;;;;4978431;28;20453;-76
2023/02/23 04:58:52;;;;;;;68.50;41.03;;;;;;;;;;4982150;28;20989;-76
2023/02/23 05:01:17;;;;;;;68.23;40.77;;;;;;;;;;4980379;28;20964;-76
2023/02/23 05:03:42;;;;;;;68.27;39.30;;;;;;;;;;4984087;28;20197;-76
2023/02/23 05:06:08;;;;;;;72.60;42.63;;;;;;;;;;4984859;28;20181;-76
2023/02/23 05:08:33;;;;;;;70.10;42.83;;;;;;;;;;4984802;28;20677;-76
2023/02/23 05:10:58;;;;;;;74.50;41.53;;;;;;;;;;4985024;28;20467;-76
2023/02/23 05:13:23;;;;;;;64.70;38.47;;;;;;;;;;4984485;28;20268;-77
2023/02/23 05:15:49;;;;;;;73.77;42.03;;;;;;;;;;4986258;28;20557;-76
2023/02/23 05:18:14;;;;;;;68.90;42.40;;;;;;;;;;4987188;28;20530;-76
2023/02/23 05:20:46;;;;;;;71.00;43.77;;;;;;;;;;4985406;28;20549;-77
2023/02/23 05:23:11;;;;;;;69.43;40.23;;;;;;;;;;4986686;28;20747;-76
2023/02/23 05:25:37;;;;;;;70.43;43.70;;;;;;;;;;4986269;28;20527;-76
2023/02/23 05:28:03;;;;;;;78.47;42.50;;;;;;;;;;4984446;28;20193;-76
2023/02/23 05:30:28;;;;;;;71.03;42.00;;;;;;;;;;4983371;28;20846;-76
2023/02/23 05:32:53;;;;;;;72.47;42.03;;;;;;;;;;4968579;28;20218;-77
2023/02/23 05:35:19;;;;;;;70.87;40.77;;;;;;;;;;4976558;28;20173;-76
2023/02/23 05:37:44;;;;;;;73.23;42.10;;;;;;;;;;4975146;28;20181;-77
2023/02/23 05:40:10;;;;;;;69.40;43.47;;;;;;;;;;4981994;28;20203;-76
2023/02/23 05:42:37;;;;;;;72.17;40.17;;;;;;;;;;4983165;28;20202;-75
2023/02/23 05:45:03;;;;;;;69.30;39.70;;;;;;;;;;4979255;28;20189;-75
2023/02/23 05:47:30;;;;;;;69.60;40.00;;;;;;;;;;4971651;28;20833;-75
2023/02/23 05:49:55;;;;;;;71.00;39.73;;;;;;;;;;4971912;28;20547;-76
2023/02/23 05:52:20;;;;;;;70.13;41.37;;;;;;;;;;4975661;28;20550;-77
2023/02/23 05:54:46;;;;;;;64.13;37.80;;;;;;;;;;4977967;28;20594;-78
2023/02/23 05:57:11;;;;;;;73.13;41.10;;;;;;;;;;4979556;28;20324;-76
2023/02/23 05:59:36;;;;;;;67.90;37.93;;;;;;;;;;4981120;28;20716;-76
2023/02/23 06:02:04;;;;;;;73.40;40.80;;;;;;;;;;4985301;28;20217;-77
2023/02/23 06:04:29;;;;;;;63.30;37.23;;;;;;;;;;4983662;28;20562;-76
2023/02/23 06:06:54;;;;;;;68.47;37.67;;;;;;;;;;4982962;28;20432;-78
2023/02/23 06:09:19;;;;;;;66.50;37.87;;;;;;;;;;4980763;28;20323;-77
2023/02/23 06:11:45;;;;;;;73.57;40.50;;;;;;;;;;4986045;28;20204;-77
2023/02/23 06:14:10;;;;;;;57.73;34.60;;;;;;;;;;4984494;28;20178;-77
2023/02/23 06:16:35;;;;;;;60.10;34.43;;;;;;;;;;4979993;28;20616;-77
2023/02/23 06:19:01;;;;;;;66.60;37.03;;;;;;;;;;4983838;28;20212;-79
2023/02/23 06:21:26;;;;;;;62.97;36.43;;;;;;;;;;4989432;28;20210;-77
2023/02/23 06:23:52;;;;;;;66.03;34.70;;;;;;;;;;4987592;28;20731;-78
2023/02/23 06:26:17;;;;;;;70.27;37.07;;;;;;;;;;4987552;28;20626;-78
2023/02/23 06:28:43;;;;;;;67.07;38.47;;;;;;;;;;4984334;28;20202;-77
2023/02/23 06:31:08;;;;;;;64.53;37.60;;;;;;;;;;4980492;28;20643;-78
2023/02/23 06:33:33;;;;;;;66.43;37.70;;;;;;;;;;4989082;28;20213;-77
2023/02/23 06:35:58;;;;;;;63.20;36.50;;;;;;;;;;4981000;28;20178;-77
2023/02/23 06:38:24;;;;;;;67.67;38.63;;;;;;;;;;4983227;28;20233;-77
2023/02/23 06:40:49;;;;;;;55.33;35.10;;;;;;;;;;4984872;28;20858;-77
2023/02/23 06:43:14;;;;;;;67.93;36.50;;;;;;;;;;4986075;28;20245;-77
2023/02/23 06:45:40;;;;;;;68.07;38.10;;;;;;;;;;4983997;28;20189;-78
2023/02/23 06:48:06;;;;;;;57.20;34.27;;;;;;;;;;4978850;28;20190;-77
2023/02/23 06:50:31;;;;;;;67.83;36.17;;;;;;;;;;4982758;28;20186;-77
2023/02/23 06:52:57;;;;;;;64.97;35.07;;;;;;;;;;4986084;28;20457;-77
2023/02/23 06:55:22;;;;;;;61.03;36.17;;;;;;;;;;4985062;28;20213;-77
2023/02/23 06:57:48;;;;;;;70.50;37.83;;;;;;;;;;4983386;28;20181;-77
2023/02/23 07:00:16;;;;;;;61.80;35.77;;;;;;;;;;4984109;28;20209;-78
2023/02/23 07:02:41;;;;;;;60.77;35.73;;;;;;;;;;4984232;28;20217;-77
2023/02/23 07:05:07;;;;;;;62.37;37.70;;;;;;;;;;4987489;28;20504;-77
2023/02/23 07:07:32;;;;;;;61.87;35.40;;;;;;;;;;4985157;28;20186;-76
2023/02/23 07:09:57;;;;;;;64.63;34.83;;;;;;;;;;4984925;28;20679;-77
2023/02/23 07:12:22;;;;;;;61.43;36.00;;;;;;;;;;4985209;28;20202;-77
2023/02/23 07:14:48;;;;;;;57.17;34.10;;;;;;;;;;4988104;28;20647;-77
2023/02/23 07:17:13;;;;;;;61.97;34.93;;;;;;;;;;4981365;28;20249;-76
2023/02/23 07:19:38;;;;;;;59.97;35.20;;;;;;;;;;4983467;28;20181;-76
2023/02/23 07:22:04;;;;;;;60.80;33.40;;;;;;;;;;4986897;28;20253;-76
2023/02/23 07:24:30;;;;;;;56.33;33.80;;;;;;;;;;4985538;28;20565;-77
2023/02/23 07:26:55;;;;;;;59.47;34.57;;;;;;;;;;4980907;28;20230;-77
2023/02/23 07:29:22;;;;;;;57.40;33.50;;;;;;;;;;4983529;28;20300;-78
2023/02/23 07:31:48;;;;;;;56.80;33.70;;;;;;;;;;4985268;28;20288;-76
2023/02/23 07:34:13;;;;;;;57.07;33.53;;;;;;;;;;4986871;28;20519;-77
2023/02/23 07:36:39;;;;;;;61.87;34.33;;;;;;;;;;4979725;28;20914;-77
2023/02/23 07:39:04;;;;;;;53.30;32.10;;;;;;;;;;4986208;28;20178;-77
2023/02/23 07:41:30;;;;;;;57.53;33.70;;;;;;;;;;4984345;28;20174;-77
2023/02/23 07:43:55;;;;;;;53.20;31.60;;;;;;;;;;4984330;28;20182;-76
2023/02/23 07:46:20;;;;;;;58.50;34.13;;;;;;;;;;4989996;28;20660;-76
2023/02/23 07:48:46;;;;;;;55.73;32.10;;;;;;;;;;4986159;28;20212;-77
2023/02/23 07:51:11;;;;;;;58.63;32.63;;;;;;;;;;4987897;28;20170;-77
2023/02/23 07:53:37;;;;;;;53.80;31.60;;;;;;;;;;4988236;28;20206;-77
2023/02/23 07:56:03;;;;;;;50.40;30.03;;;;;;;;;;4987925;28;20794;-77
2023/02/23 07:58:29;;;;;;;56.60;31.03;;;;;;;;;;4988817;28;20267;-77
2023/02/23 08:00:55;;;;;;;52.57;30.10;;;;;;;;;;4986392;28;20221;-76
2023/02/23 08:03:20;;;;;;;51.63;30.20;;;;;;;;;;4989010;28;20464;-77
2023/02/23 08:05:46;;;;;;;49.07;29.83;;;;;;;;;;4988162;28;20416;-77
2023/02/23 08:08:11;;;;;;;51.43;31.03;;;;;;;;;;4983875;28;20181;-77
2023/02/23 08:10:37;;;;;;;50.90;30.17;;;;;;;;;;4988983;28;20174;-77
2023/02/23 08:13:03;;;;;;;57.17;30.87;;;;;;;;;;4988559;28;20205;-77
2023/02/23 08:15:28;;;;;;;49.70;30.87;;;;;;;;;;4988943;28;20784;-77
2023/02/23 08:17:54;;;;;;;52.03;29.57;;;;;;;;;;4978833;28;20200;-78
2023/02/23 08:20:19;;;;;;;54.20;32.27;;;;;;;;;;4989605;28;20182;-77
2023/02/23 08:22:44;;;;;;;54.60;31.20;;;;;;;;;;4984997;28;20209;-77
2023/02/23 08:25:10;;;;;;;55.10;31.77;;;;;;;;;;4987770;28;20224;-77
2023/02/23 08:27:36;;;;;;;56.17;33.33;;;;;;;;;;4986310;28;20189;-77
2023/02/23 08:30:04;;;;;;;59.57;33.97;;;;;;;;;;4985168;28;20202;-77
2023/02/23 08:32:33;;;;;;;57.10;33.40;;;;;;;;;;4988235;28;21119;-77
2023/02/23 08:35:01;;;;;;;58.47;31.83;;;;;;;;;;5001711;28;20442;-77
2023/02/23 08:37:27;;;;;;;57.23;33.13;;;;;;;;;;4987290;28;20500;-77
2023/02/23 08:39:52;;;;;;;61.33;34.80;;;;;;;;;;4987720;28;20420;-77
2023/02/23 08:42:18;;;;;;;52.27;32.47;;;;;;;;;;4989474;28;20956;-77
2023/02/23 08:44:43;;;;;;;60.93;33.17;;;;;;;;;;4987396;28;20559;-76
2023/02/23 08:47:08;;;;;;;55.37;32.80;;;;;;;;;;4988813;28;20186;-77
2023/02/23 08:49:34;;;;;;;61.53;31.60;;;;;;;;;;4985549;28;20215;-77
2023/02/23 08:51:59;;;;;;;53.70;30.47;;;;;;;;;;4987195;28;20305;-77
2023/02/23 08:54:25;;;;;;;62.60;30.43;;;;;;;;;;4987199;28;20669;-77
2023/02/23 08:56:54;;;;;;;58.27;32.27;;;;;;;;;;4985812;28;20714;-77
2023/02/23 08:59:19;;;;;;;52.97;31.50;;;;;;;;;;4987269;28;20453;-77
2023/02/23 09:01:44;;;;;;;52.57;29.13;;;;;;;;;;4986715;28;20872;-77
2023/02/23 09:04:10;;;;;;;50.57;29.93;;;;;;;;;;4985263;28;20193;-77
2023/02/23 09:06:35;;;;;;;50.60;28.47;;;;;;;;;;4984819;28;21739;-76
2023/02/23 09:09:01;;;;;;;52.73;29.83;;;;;;;;;;4986850;28;20614;-77
2023/02/23 09:11:26;;;;;;;51.27;27.67;;;;;;;;;;4986043;28;20169;-76
2023/02/23 09:13:51;;;;;;;58.73;30.90;;;;;;;;;;4988430;28;20205;-76
2023/02/23 09:16:17;;;;;;;58.97;31.10;;;;;;;;;;4987046;28;20277;-77
2023/02/23 09:18:42;;;;;;;65.73;30.93;;;;;;;;;;4984512;28;20264;-77
2023/02/23 09:21:13;;;;;;;54.53;30.87;;;;;;;;;;4986418;28;20182;-76
2023/02/23 09:23:38;;;;;;;55.73;31.20;;;;;;;;;;5001470;28;20213;-77
2023/02/23 09:26:04;;;;;;;58.33;30.27;;;;;;;;;;4986520;28;20412;-76
2023/02/23 09:28:32;;;;;;;60.07;31.83;;;;;;;;;;4987885;28;20965;-77
2023/02/23 09:30:58;;;;;;;56.73;30.90;;;;;;;;;;4980858;28;20463;-76
2023/02/23 09:33:25;;;;;;;59.13;32.10;;;;;;;;;;4981683;28;20444;-77
2023/02/23 09:35:50;;;;;;;61.37;31.93;;;;;;;;;;4987218;28;20200;-76
2023/02/23 09:38:15;;;;;;;57.90;32.40;;;;;;;;;;4987126;28;20925;-77
2023/02/23 09:40:43;;;;;;;59.83;32.60;;;;;;;;;;4991754;28;20182;-77
2023/02/23 09:43:24;;;;;;;59.43;32.27;;;;;;;;;;4992115;28;20205;-77
2023/02/23 09:45:49;;;;;;;54.20;30.30;;;;;;;;;;4982276;28;20462;-77
2023/02/23 09:48:16;;;;;;;56.00;31.97;;;;;;;;;;4984356;28;20454;-77
2023/02/23 09:50:47;;;;;;;51.80;29.40;;;;;;;;;;5001503;28;20182;-77
2023/02/23 09:53:31;;;;;;;60.60;33.10;;;;;;;;;;4988944;28;21095;-77
2023/02/23 09:55:57;;;;;;;61.83;32.03;;;;;;;;;;4996434;28;20436;-77
2023/02/23 09:58:24;;;;;;;59.20;30.50;;;;;;;;;;4991311;28;20431;-76
2023/02/23 10:01:00;;;;;;;61.23;30.97;;;;;;;;;;4990665;28;20421;-77
2023/02/23 10:03:29;;;;;;;57.17;30.50;;;;;;;;;;4990818;28;20471;-77
2023/02/23 10:05:56;;;;;;;62.80;31.63;;;;;;;;;;4989461;28;20427;-77
2023/02/23 10:08:27;;;;;;;64.40;33.30;;;;;;;;;;4987746;28;20495;-76
2023/02/23 10:11:13;;;;;;;59.10;29.93;;;;;;;;;;4984410;28;20532;-77
2023/02/23 10:13:52;;;;;;;61.03;31.80;;;;;;;;;;4988017;28;20470;-77
2023/02/23 10:16:44;;;;;;;63.40;30.87;;;;;;;;;;4986351;28;20428;-77
2023/02/23 10:19:22;;;;;;;56.80;29.17;;;;;;;;;;4988724;28;20496;-77
2023/02/23 10:21:54;;;;;;;61.00;30.23;;;;;;;;;;5000722;28;20991;-77
2023/02/23 10:24:24;;;;;;;57.53;27.03;;;;;;;;;;4987562;28;20433;-77
2023/02/23 10:26:54;;;;;;;53.77;26.80;;;;;;;;;;4984622;28;20432;-76
2023/02/23 10:29:22;;;;;;;47.80;25.23;;;;;;;;;;4989217;28;20472;-77
2023/02/23 10:31:49;;;;;;;41.17;23.50;;;;;;;;;;4987548;28;20411;-77
2023/02/23 10:34:15;;;;;;;41.73;22.53;;;;;;;;;;4983233;28;20425;-77
2023/02/23 10:36:46;;;;;;;46.47;25.27;;;;;;;;;;4988732;28;20413;-77
2023/02/23 10:39:12;;;;;;;51.00;24.13;;;;;;;;;;4989478;28;20807;-77
2023/02/23 10:41:38;;;;;;;45.53;23.20;;;;;;;;;;4990333;28;20429;-77
2023/02/23 10:44:05;;;;;;;47.97;24.23;;;;;;;;;;4989167;28;20710;-78
2023/02/23 10:46:35;;;;;;;53.53;25.53;;;;;;;;;;4987710;28;20233;-77
2023/02/23 10:49:01;;;;;;;42.93;23.63;;;;;;;;;;4997612;28;20505;-77
2023/02/23 10:51:32;;;;;;;51.57;26.00;;;;;;;;;;5004202;28;20542;-77
2023/02/23 10:53:58;;;;;;;51.47;25.93;;;;;;;;;;4988877;28;20913;-77
2023/02/23 10:56:23;;;;;;;50.20;26.70;;;;;;;;;;4989467;28;20420;-77
2023/02/23 10:58:50;;;;;;;60.90;28.17;;;;;;;;;;4988367;28;20269;-76
2023/02/23 11:01:31;;;;;;;52.77;25.40;;;;;;;;;;4985407;28;20182;-76
2023/02/23 11:03:58;;;;;;;54.13;26.67;;;;;;;;;;4988550;28;20961;-77
2023/02/23 11:06:34;;;;;;;52.13;27.20;;;;;;;;;;4988119;28;20527;-77
2023/02/23 11:09:15;;;;;;;58.73;26.70;;;;;;;;;;4990857;28;20555;-77
2023/02/23 11:11:40;;;;;;;48.97;25.00;;;;;;;;;;4983939;28;20421;-77
2023/02/23 11:14:15;;;;;;;51.53;26.10;;;;;;;;;;4984098;28;20437;-76
2023/02/23 11:16:40;;;;;;;56.77;27.23;;;;;;;;;;4983898;28;20178;-76
2023/02/23 11:19:23;;;;;;;59.53;27.20;;;;;;;;;;4983587;28;20508;-77
2023/02/23 11:21:50;;;;;;;53.10;25.40;;;;;;;;;;4986516;28;20662;-76
2023/02/23 11:24:18;;;;;;;54.73;26.03;;;;;;;;;;4993434;28;21164;-76
2023/02/23 11:26:44;;;;;;;47.57;24.23;;;;;;;;;;4984424;28;20435;-77
2023/02/23 11:29:21;;;;;;;53.83;24.80;;;;;;;;;;4983140;28;20469;-76
2023/02/23 11:31:53;;;;;;;52.87;24.40;;;;;;;;;;4992975;28;20471;-77
2023/02/23 11:34:29;;;;;;;48.23;23.77;;;;;;;;;;4977531;28;20918;-77
2023/02/23 11:36:58;;;;;;;37.53;21.07;;;;;;;;;;4982644;28;20491;-76
2023/02/23 11:39:24;;;;;;;42.93;21.33;;;;;;;;;;4985100;28;20445;-77
2023/02/23 11:42:08;;;;;;;36.33;18.40;;;;;;;;;;4978999;28;20465;-77
2023/02/23 11:44:33;;;;;;;36.73;19.17;;;;;;;;;;4981421;28;20516;-77
2023/02/23 11:47:00;;;;;;;31.33;18.30;;;;;;;;;;4984389;28;20456;-77
2023/02/23 11:49:28;;;;;;;38.10;19.03;;;;;;;;;;4984275;28;20289;-76
2023/02/23 11:51:53;;;;;;;31.90;18.23;;;;;;;;;;4984948;28;20449;-76
2023/02/23 11:54:27;;;;;;;35.00;17.57;;;;;;;;;;4984167;28;20456;-76
2023/02/23 11:56:54;;;;;;;41.17;21.70;;;;;;;;;;4977158;28;20182;-77
2023/02/23 11:59:23;;;;;;;43.23;22.03;;;;;;;;;;4978246;28;20444;-77
2023/02/23 12:01:50;;;;;;;40.33;22.67;;;;;;;;;;4980472;28;20459;-77
2023/02/23 12:04:46;;;;;;;45.03;20.73;;;;;;;;;;4985578;28;20429;-77
2023/02/23 12:07:20;;;;;;;39.23;21.40;;;;;;;;;;4979693;28;21171;-77
2023/02/23 12:09:47;;;;;;;42.97;22.80;;;;;;;;;;4983913;28;20456;-77
2023/02/23 12:12:15;;;;;;;45.10;23.17;;;;;;;;;;4983475;28;20529;-77
2023/02/23 12:14:40;;;;;;;44.13;22.00;;;;;;;;;;4982047;28;20420;-76
2023/02/23 12:17:40;;;;;;;44.73;21.40;;;;;;;;;;4981203;28;20448;-76
2023/02/23 12:20:09;;;;;;;52.37;24.17;;;;;;;;;;4973867;28;20272;-76
2023/02/23 12:22:38;;;;;;;55.77;24.53;;;;;;;;;;4984229;28;20452;-76
2023/02/23 12:25:10;;;;;;;58.17;26.60;;;;;;;;;;4981265;28;20440;-77
2023/02/23 12:27:40;;;;;;;48.77;23.83;;;;;;;;;;4983258;28;20440;-75
2023/02/23 12:30:05;;;;;;;58.00;25.10;;;;;;;;;;4980413;28;20492;-76
2023/02/23 12:32:31;;;;;;;57.77;24.50;;;;;;;;;;4982734;28;20507;-77
2023/02/23 12:34:59;;;;;;;55.50;24.97;;;;;;;;;;4984894;28;20177;-76
2023/02/23 12:37:28;;;;;;;63.20;27.90;;;;;;;;;;4976205;28;20179;-76
2023/02/23 12:39:57;;;;;;;65.20;26.23;;;;;;;;;;4999182;28;20472;-76
2023/02/23 12:42:22;;;;;;;71.43;29.10;;;;;;;;;;4982836;28;20458;-76
2023/02/23 12:45:14;;;;;;;85.10;32.40;;;;;;;;;;4981652;28;20455;-76
2023/02/23 12:47:43;;;;;;;92.57;33.73;;;;;;;;;;4966129;28;20233;-75
2023/02/23 12:50:26;;;;;;;96.93;34.73;;;;;;;;;;4982191;28;20476;-76
2023/02/23 12:52:54;;;;;;;88.87;32.13;;;;;;;;;;4980894;28;20572;-77
2023/02/23 12:55:23;;;;;;;93.13;33.47;;;;;;;;;;4981908;28;20425;-76
2023/02/23 12:57:54;;;;;;;71.97;29.10;;;;;;;;;;4980870;28;20981;-76
2023/02/23 13:00:34;;;;;;;80.27;28.63;;;;;;;;;;4980099;28;20448;-75
2023/02/23 13:03:07;;;;;;;70.67;30.47;;;;;;;;;;4993556;28;20460;-76
2023/02/23 13:05:36;;;;;;;70.10;28.50;;;;;;;;;;4982277;28;20532;-76
2023/02/23 13:08:22;;;;;;;75.63;30.00;;;;;;;;;;4983732;28;20480;-76
2023/02/23 13:10:47;;;;;;;74.63;27.70;;;;;;;;;;4993316;28;20444;-75
2023/02/23 13:13:29;;;;;;;69.50;28.33;;;;;;;;;;4979120;28;20461;-75
2023/02/23 13:15:58;;;;;;;74.43;28.17;;;;;;;;;;4982015;28;20193;-77
2023/02/23 13:18:37;;;;;;;63.30;26.70;;;;;;;;;;4980364;28;20582;-75
2023/02/23 13:21:21;;;;;;;33.67;15.37;;;;;;;;;;4983458;28;20427;-75
2023/02/23 13:23:49;;;;;;;21.60;8.30;;;;;;;;;;4980064;28;20607;-74
2023/02/23 13:26:17;;;;;;;15.23;4.13;;;;;;;;;;4981474;28;20424;-75
2023/02/23 13:29:01;;;;;;;16.03;4.87;;;;;;;;;;4976087;28;20465;-76
2023/02/23 13:31:45;;;;;;;16.70;3.63;;;;;;;;;;4984689;28;20471;-76
2023/02/23 13:34:30;;;;;;;18.20;5.37;;;;;;;;;;4981891;28;20429;-76
2023/02/23 13:36:57;;;;;;;30.93;6.40;;;;;;;;;;4981353;28;20588;-77
2023/02/23 13:39:32;;;;;;;27.43;6.60;;;;;;;;;;4971535;28;20497;-77
2023/02/23 13:42:00;;;;;;;38.53;8.00;;;;;;;;;;4975640;28;20583;-77
2023/02/23 13:44:37;;;;;;;34.80;7.30;;;;;;;;;;4980144;28;20433;-77
2023/02/23 13:47:09;;;;;;;36.90;7.97;;;;;;;;;;4979625;28;20511;-76
2023/02/23 13:49:34;;;;;;;36.90;8.03;;;;;;;;;;4980383;28;20531;-76
2023/02/23 13:52:08;;;;;;;29.50;7.70;;;;;;;;;;4985278;28;20451;-76
2023/02/23 13:54:33;;;;;;;37.43;7.83;;;;;;;;;;4985744;28;20182;-76
2023/02/23 13:57:00;;;;;;;37.17;7.60;;;;;;;;;;4988456;28;20424;-76
2023/02/23 13:59:32;;;;;;;31.73;8.07;;;;;;;;;;4995869;28;20645;-76
2023/02/23 14:02:17;;;;;;;31.53;7.10;;;;;;;;;;4987251;28;20469;-76
2023/02/23 14:04:42;;;;;;;28.20;7.07;;;;;;;;;;4986908;28;20456;-76
2023/02/23 14:07:07;;;;;;;37.97;7.20;;;;;;;;;;4985625;28;20452;-75
2023/02/23 14:09:39;;;;;;;35.73;7.80;;;;;;;;;;4986422;28;20210;-75
2023/02/23 14:12:25;;;;;;;34.50;7.77;;;;;;;;;;5002081;28;20210;-76
2023/02/23 14:14:50;;;;;;;43.87;8.03;;;;;;;;;;4983347;28;20775;-76
2023/02/23 14:17:18;;;;;;;37.03;7.73;;;;;;;;;;4980250;28;20443;-76
2023/02/23 14:20:04;;;;;;;31.20;7.80;;;;;;;;;;4981159;28;20185;-77
2023/02/23 14:22:30;;;;;;;31.53;6.23;;;;;;;;;;4975545;28;20957;-76
2023/02/23 14:25:14;;;;;;;31.80;6.47;;;;;;;;;;4988390;28;20503;-77
2023/02/23 14:27:43;;;;;;;26.90;6.70;;;;;;;;;;4984006;28;20190;-77
2023/02/23 14:30:11;;;;;;;26.03;6.03;;;;;;;;;;4988231;28;20472;-77
2023/02/23 14:32:37;;;;;;;28.27;6.27;;;;;;;;;;4999516;28;20536;-76
2023/02/23 14:35:02;;;;;;;29.30;6.20;;;;;;;;;;4984557;28;20478;-76
2023/02/23 14:37:33;;;;;;;24.23;5.40;;;;;;;;;;4990545;28;20864;-81
2023/02/23 14:40:03;;;;;;;26.87;5.10;;;;;;;;;;4987789;28;20179;-82
2023/02/23 14:42:28;;;;;;;38.57;5.90;;;;;;;;;;4988461;28;20496;-81
2023/02/23 14:44:54;;;;;;;26.13;6.47;;;;;;;;;;4987168;28;20430;-81
2023/02/23 14:47:25;;;;;;;28.30;5.80;;;;;;;;;;4982299;28;20178;-81
2023/02/23 14:49:53;;;;;;;24.13;5.10;;;;;;;;;;4990246;28;20564;-81
2023/02/23 14:52:26;;;;;;;18.47;4.70;;;;;;;;;;4998599;28;20456;-81
2023/02/23 14:55:03;;;;;;;25.67;5.03;;;;;;;;;;4982418;28;20461;-81
2023/02/23 14:57:28;;;;;;;24.00;4.80;;;;;;;;;;4987054;28;20532;-81
2023/02/23 15:00:01;;;;;;;28.13;6.03;;;;;;;;;;4988578;28;20992;-81
2023/02/23 15:02:29;;;;;;;21.80;5.00;;;;;;;;;;4985516;28;20284;-81
2023/02/23 15:04:55;;;;;;;25.20;6.60;;;;;;;;;;4988265;28;20421;-81
2023/02/23 15:07:29;;;;;;;18.57;5.17;;;;;;;;;;4984227;28;20503;-80
2023/02/23 15:09:56;;;;;;;25.60;5.20;;;;;;;;;;4985770;28;20204;-81
2023/02/23 15:12:27;;;;;;;24.97;4.30;;;;;;;;;;4984323;28;20448;-81
2023/02/23 15:14:55;;;;;;;15.37;4.70;;;;;;;;;;4985106;28;20972;-81
2023/02/23 15:17:22;;;;;;;18.47;4.70;;;;;;;;;;4978232;28;20941;-81
2023/02/23 15:19:50;;;;;;;19.40;4.00;;;;;;;;;;4994307;23;20755;-71
2023/02/23 15:22:20;;;;;;;26.50;5.10;;;;;;;;;;4989130;28;20464;-71
2023/02/23 15:24:47;;;;;;;16.07;3.70;;;;;;;;;;4988465;28;20485;-70
2023/02/23 15:27:23;;;;;;;23.67;4.33;;;;;;;;;;4989579;28;20854;-70
2023/02/23 15:29:49;;;;;;;19.47;4.17;;;;;;;;;;4987064;28;20468;-70
2023/02/23 15:32:19;;;;;;;12.97;3.70;;;;;;;;;;4985687;28;20433;-70
2023/02/23 15:34:44;;;;;;;19.13;4.10;;;;;;;;;;4994894;28;20178;-70
2023/02/23 15:37:14;;;;;;;14.73;3.93;;;;;;;;;;4986112;28;20436;-70
2023/02/23 15:39:46;;;;;;;17.20;4.30;;;;;;;;;;4987228;28;20288;-70
2023/02/23 15:42:13;;;;;;;15.27;3.50;;;;;;;;;;4981116;28;20443;-70
2023/02/23 15:44:39;;;;;;;20.63;4.40;;;;;;;;;;4988289;28;20425;-70
2023/02/23 15:47:08;;;;;;;15.33;4.63;;;;;;;;;;4988179;28;20419;-70